createdAt,value
2022-08-05T00:00:20.332Z,100638.00
2022-08-05T00:02:52.407Z,100636.16
2022-08-05T00:06:03.226Z,100638.44
2022-08-05T00:08:32.933Z,100626.44
2022-08-05T00:11:00.416Z,100639.56
2022-08-05T00:13:39.175Z,100622.19
2022-08-05T00:16:15.537Z,100638.03
2022-08-05T00:18:48.138Z,100630.38
2022-08-05T00:21:17.833Z,100623.16
2022-08-05T00:24:05.112Z,100624.97
2022-08-05T00:26:34.553Z,100628.28
2022-08-05T00:29:02.169Z,100625.06
2022-08-05T00:31:53.273Z,100624.16
2022-08-05T00:34:54.017Z,100625.16
2022-08-05T00:37:10.761Z,100627.78
2022-08-05T00:39:44.129Z,100619.78
2022-08-05T00:42:11.756Z,100628.00
2022-08-05T00:44:59.464Z,100621.09
2022-08-05T00:47:26.608Z,100619.16
2022-08-05T00:50:13.707Z,100620.97
2022-08-05T00:52:42.126Z,100616.28
2022-08-05T00:55:12.718Z,100616.16
2022-08-05T00:57:58.338Z,100620.03
2022-08-05T01:00:30.767Z,100623.75
2022-08-05T01:02:59.776Z,100623.28
2022-08-05T01:05:27.919Z,100627.38
2022-08-05T01:08:29.919Z,100628.03
2022-08-05T01:10:56.656Z,100645.16
2022-08-05T01:13:58.611Z,100647.31
2022-08-05T01:16:49.733Z,100655.38
2022-08-05T01:19:56.002Z,100637.22
2022-08-05T01:23:15.265Z,100649.19
2022-08-05T01:26:21.897Z,100647.44
2022-08-05T01:29:05.322Z,100647.78
2022-08-05T01:32:05.167Z,100646.03
2022-08-05T01:34:48.441Z,100662.00
2022-08-05T01:37:44.392Z,100669.75
2022-08-05T01:40:12.821Z,100652.03
2022-08-05T01:42:42.914Z,100647.69
2022-08-05T01:45:10.869Z,100652.38
2022-08-05T01:47:43.369Z,100659.66
2022-08-05T01:50:28.834Z,100661.13
2022-08-05T01:53:04.093Z,100655.81
2022-08-05T01:55:36.220Z,100659.22
2022-08-05T01:58:11.342Z,100650.06
2022-08-05T02:00:58.014Z,100660.69
2022-08-05T02:03:34.084Z,100656.00
2022-08-05T02:06:23.945Z,100654.59
2022-08-05T02:08:57.784Z,100651.25
2022-08-05T02:11:32.768Z,100656.25
2022-08-05T02:14:14.557Z,100640.81
2022-08-05T02:16:53.338Z,100642.63
2022-08-05T02:19:41.365Z,100646.06
2022-08-05T02:22:36.865Z,100647.53
2022-08-05T02:25:14.523Z,100639.16
2022-08-05T02:27:58.431Z,100626.47
2022-08-05T02:30:34.493Z,100631.94
2022-08-05T02:33:03.764Z,100637.75
2022-08-05T02:35:37.685Z,100635.00
2022-08-05T02:38:19.337Z,100627.00
2022-08-05T02:40:47.485Z,100636.97
2022-08-05T02:43:16.857Z,100646.47
2022-08-05T02:45:51.867Z,100641.16
2022-08-05T02:48:29.496Z,100639.09
2022-08-05T02:51:02.511Z,100639.75
2022-08-05T02:53:39.640Z,100652.13
2022-08-05T02:56:16.065Z,100643.13
2022-08-05T02:58:51.272Z,100640.72
2022-08-05T03:01:25.508Z,100635.59
2022-08-05T03:04:03.360Z,100631.06
2022-08-05T03:06:53.763Z,100639.25
2022-08-05T03:09:27.066Z,100643.13
2022-08-05T03:12:05.417Z,100648.59
2022-08-05T03:14:33.105Z,100646.19
2022-08-05T03:17:00.608Z,100636.38
2022-08-05T03:19:31.528Z,100636.38
2022-08-05T03:22:01.422Z,100644.09
2022-08-05T03:24:30.831Z,100637.34
2022-08-05T03:27:01.646Z,100632.38
2022-08-05T03:29:45.565Z,100635.44
2022-08-05T03:32:15.950Z,100629.19
2022-08-05T03:34:50.619Z,100625.78
2022-08-05T03:37:20.678Z,100625.78
2022-08-05T03:40:01.165Z,100634.63
2022-08-05T03:42:32.288Z,100624.03
2022-08-05T03:45:01.849Z,100630.28
2022-08-05T03:47:51.555Z,100625.63
2022-08-05T03:50:20.287Z,100620.97
2022-08-05T03:55:54.021Z,100624.16
2022-08-05T03:56:27.815Z,100634.31
2022-08-05T03:59:04.500Z,100634.94
2022-08-05T04:01:41.298Z,100641.69
2022-08-05T04:04:16.856Z,100651.03
2022-08-05T04:06:51.155Z,100643.63
2022-08-05T04:09:20.359Z,100637.03
2022-08-05T04:11:53.716Z,100644.59
2022-08-05T04:14:29.745Z,100647.31
2022-08-05T04:17:00.016Z,100647.00
2022-08-05T04:19:29.271Z,100652.59
2022-08-05T04:22:09.390Z,100643.59
2022-08-05T04:24:44.546Z,100649.72
2022-08-05T04:27:19.640Z,100642.81
2022-08-05T04:30:08.808Z,100631.22
2022-08-05T04:32:36.484Z,100632.50
2022-08-05T04:35:05.233Z,100632.00
2022-08-05T04:38:01.602Z,100623.94
2022-08-05T04:40:20.973Z,100631.28
2022-08-05T04:42:47.865Z,100622.94
2022-08-05T04:45:31.092Z,100630.31
2022-08-05T04:48:18.609Z,100647.94
2022-08-05T04:51:03.304Z,100660.31
2022-08-05T04:53:38.819Z,100662.19
2022-08-05T04:56:32.659Z,100660.22
2022-08-05T04:58:57.133Z,100658.91
2022-08-05T05:02:05.482Z,100677.22
2022-08-05T05:04:11.933Z,100669.75
2022-08-05T05:06:44.753Z,100662.28
2022-08-05T05:09:17.627Z,100667.94
2022-08-05T05:11:54.180Z,100671.88
2022-08-05T05:14:31.469Z,100669.22
2022-08-05T05:17:03.314Z,100673.50
2022-08-05T05:19:36.555Z,100655.88
2022-08-05T05:22:23.739Z,100661.84
2022-08-05T05:24:59.797Z,100656.88
2022-08-05T05:27:44.479Z,100662.84
2022-08-05T05:30:29.394Z,100659.34
2022-08-05T05:33:00.522Z,100664.06
2022-08-05T05:35:31.634Z,100675.38
2022-08-05T05:38:09.502Z,100670.63
2022-08-05T05:40:43.857Z,100684.22
2022-08-05T05:43:28.128Z,100697.19
2022-08-05T05:46:05.134Z,100703.72
2022-08-05T05:48:34.725Z,100719.72
2022-08-05T05:51:05.068Z,100738.50
2022-08-05T05:53:54.206Z,100730.50
2022-08-05T05:56:32.708Z,100720.63
2022-08-05T05:59:10.247Z,100705.31
2022-08-05T06:01:57.242Z,100695.00
2022-08-05T06:04:25.104Z,100714.91
2022-08-05T06:06:52.257Z,100734.81
2022-08-05T06:09:25.899Z,100746.47
2022-08-05T06:12:04.172Z,100763.88
2022-08-05T06:14:31.770Z,100761.22
2022-08-05T06:17:01.918Z,100768.91
2022-08-05T06:19:57.174Z,100751.78
2022-08-05T06:22:34.033Z,100753.97
2022-08-05T06:25:25.012Z,100766.78
2022-08-05T06:28:12.210Z,100783.16
2022-08-05T06:30:37.059Z,100781.75
2022-08-05T06:33:04.137Z,100787.84
2022-08-05T06:36:05.717Z,100779.66
2022-08-05T06:38:18.548Z,100788.28
2022-08-05T06:41:07.696Z,100786.78
2022-08-05T06:43:59.047Z,100771.97
2022-08-05T06:46:30.019Z,100777.22
2022-08-05T06:49:00.815Z,100766.41
2022-08-05T06:51:30.957Z,100759.16
2022-08-05T06:54:00.037Z,100761.03
2022-08-05T06:56:28.671Z,100766.81
2022-08-05T06:58:55.913Z,100763.63
2022-08-05T07:01:23.590Z,100756.63
2022-08-05T07:03:54.888Z,100755.47
2022-08-05T07:06:23.177Z,100753.28
2022-08-05T07:08:52.076Z,100759.69
2022-08-05T07:11:25.428Z,100760.13
2022-08-05T07:14:20.045Z,100751.63
2022-08-05T07:18:08.483Z,100761.56
2022-08-05T07:22:28.858Z,100765.13
2022-08-05T07:25:24.116Z,100772.66
2022-08-05T07:27:57.792Z,100778.88
2022-08-05T07:30:38.385Z,100787.53
2022-08-05T07:33:10.609Z,100784.56
2022-08-05T07:36:04.135Z,100793.06
2022-08-05T07:38:33.561Z,100801.47
2022-08-05T07:41:35.007Z,100800.34
2022-08-05T07:43:57.463Z,100786.91
2022-08-05T07:52:12.205Z,100777.41
2022-08-05T07:54:41.411Z,100781.03
2022-08-05T07:57:41.910Z,100777.09
2022-08-05T08:00:11.534Z,100790.25
2022-08-05T08:03:15.109Z,100786.28
2022-08-05T08:05:28.994Z,100780.75
2022-08-05T08:07:59.922Z,100767.25
2022-08-05T08:10:28.496Z,100776.34
2022-08-05T08:12:58.621Z,100772.75
2022-08-05T08:15:37.096Z,100783.97
2022-08-05T08:18:14.111Z,100794.88
2022-08-05T08:21:02.200Z,100790.78
2022-08-05T08:26:26.962Z,100783.84
2022-08-05T08:28:59.729Z,100784.22
2022-08-05T08:31:45.490Z,100766.41
2022-08-05T08:34:13.353Z,100759.34
2022-08-05T08:36:47.687Z,100768.59
2022-08-05T08:42:34.584Z,100790.84
2022-08-05T08:45:22.939Z,100803.41
2022-08-05T08:48:36.131Z,100816.22
2022-08-05T08:51:54.548Z,100834.63
2022-08-05T08:53:52.019Z,100827.69
2022-08-05T08:56:20.935Z,100824.31
2022-08-05T08:58:50.567Z,100826.97
2022-08-05T09:01:19.810Z,100829.91
2022-08-05T09:03:57.275Z,100825.34
2022-08-05T09:06:31.733Z,100842.59
2022-08-05T09:09:01.265Z,100838.06
2022-08-05T09:11:51.955Z,100844.25
2022-08-05T09:14:58.425Z,100827.91
2022-08-05T09:17:16.089Z,100830.94
2022-08-05T09:20:02.913Z,100842.59
2022-08-05T09:23:09.485Z,100861.06
2022-08-05T09:26:02.612Z,100869.69
2022-08-05T09:28:32.173Z,100865.41
2022-08-05T09:31:23.511Z,100867.72
2022-08-05T09:33:59.537Z,100876.44
2022-08-05T09:36:56.295Z,100860.75
2022-08-05T09:39:41.485Z,100878.41
2022-08-05T09:42:23.152Z,100887.50
2022-08-05T09:44:56.075Z,100891.41
2022-08-05T09:47:29.680Z,100892.56
2022-08-05T09:50:18.011Z,100895.25
2022-08-05T09:53:01.741Z,100891.13
2022-08-05T09:55:57.427Z,100893.00
2022-08-05T10:01:22.467Z,100877.38
2022-08-05T10:04:10.314Z,100857.09
2022-08-05T10:06:54.873Z,100854.53
2022-08-05T10:09:29.678Z,100838.59
2022-08-05T10:12:18.499Z,100837.25
2022-08-05T10:15:20.963Z,100838.97
2022-08-05T10:18:09.837Z,100835.16
2022-08-05T10:20:47.586Z,100826.63
2022-08-05T10:23:34.630Z,100801.16
2022-08-05T10:26:13.982Z,100812.31
2022-08-05T10:29:00.223Z,100815.97
2022-08-05T10:32:54.149Z,100832.94
2022-08-05T10:34:17.020Z,100853.44
2022-08-05T10:37:12.743Z,100852.66
2022-08-05T10:40:18.045Z,100880.41
2022-08-05T10:42:51.126Z,100902.28
2022-08-05T10:45:39.765Z,100902.28
2022-08-05T10:48:38.378Z,100867.16
2022-08-05T10:51:23.086Z,100877.28
2022-08-05T10:53:58.472Z,100861.56
2022-08-05T10:56:49.347Z,100878.09
2022-08-05T11:00:02.400Z,100885.25
2022-08-05T11:02:37.485Z,100894.34
2022-08-05T11:05:11.156Z,100885.00
2022-08-05T11:08:33.688Z,100878.75
2022-08-05T11:11:00.935Z,100868.59
2022-08-05T11:13:58.134Z,100847.63
2022-08-05T11:16:47.548Z,100836.94
2022-08-05T11:20:10.613Z,100844.91
2022-08-05T11:22:42.938Z,100849.38
2022-08-05T11:26:04.312Z,100855.94
2022-08-05T11:28:25.436Z,100863.16
2022-08-05T11:31:06.565Z,100868.66
2022-08-05T11:33:48.187Z,100862.28
2022-08-05T11:36:34.654Z,100859.47
2022-08-05T11:39:09.502Z,100846.25
2022-08-05T11:42:01.615Z,100848.66
2022-08-05T11:44:40.391Z,100845.06
2022-08-05T11:47:10.489Z,100849.34
2022-08-05T11:49:42.933Z,100854.66
2022-08-05T11:52:11.494Z,100866.19
2022-08-05T11:54:41.419Z,100860.66
2022-08-05T11:57:39.427Z,100862.13
2022-08-05T11:59:56.675Z,100856.78
2022-08-05T12:02:32.339Z,100858.78
2022-08-05T12:05:06.900Z,100847.47
2022-08-05T12:08:08.553Z,100848.38
2022-08-05T12:10:39.076Z,100853.44
2022-08-05T12:13:27.959Z,100845.63
2022-08-05T12:16:14.435Z,100850.91
2022-08-05T12:18:42.786Z,100848.72
2022-08-05T12:21:33.878Z,100849.94
2022-08-05T12:24:14.025Z,100855.25
2022-08-05T12:26:52.708Z,100854.50
2022-08-05T12:29:25.764Z,100861.72
2022-08-05T12:31:57.866Z,100855.13
2022-08-05T12:34:37.970Z,100854.34
2022-08-05T12:37:21.620Z,100851.44
2022-08-05T12:40:03.010Z,100836.41
2022-08-05T12:42:31.736Z,100836.09
2022-08-05T12:45:09.565Z,100842.53
2022-08-05T12:47:37.703Z,100840.03
2022-08-05T12:50:19.792Z,100835.63
2022-08-05T12:52:59.651Z,100843.66
2022-08-05T12:55:32.970Z,100853.38
2022-08-05T12:58:49.881Z,100853.38
2022-08-05T13:02:03.203Z,100856.63
2022-08-05T13:03:41.985Z,100850.66
2022-08-05T13:06:17.770Z,100853.00
2022-08-05T13:08:51.965Z,100856.38
2022-08-05T13:11:59.787Z,100841.47
2022-08-05T13:14:24.553Z,100846.97
2022-08-05T13:17:02.918Z,100850.00
2022-08-05T13:19:40.443Z,100858.16
2022-08-05T13:22:28.380Z,100860.00
2022-08-05T13:25:00.896Z,100857.31
2022-08-05T13:27:42.758Z,100858.84
2022-08-05T13:30:32.969Z,100854.34
2022-08-05T13:33:01.155Z,100855.91
2022-08-05T13:35:42.391Z,100860.44
2022-08-05T13:38:28.338Z,100855.69
2022-08-05T13:41:01.606Z,100851.13
2022-08-05T13:43:45.723Z,100849.00
2022-08-05T13:46:35.845Z,100849.31
2022-08-05T13:49:04.853Z,100843.69
2022-08-05T13:51:40.960Z,100847.16
2022-08-05T13:54:12.605Z,100852.53
2022-08-05T13:56:44.992Z,100848.34
2022-08-05T13:59:24.943Z,100849.09
2022-08-05T14:02:00.710Z,100861.97
2022-08-05T14:04:50.791Z,100862.53
2022-08-05T14:07:26.337Z,100870.03
2022-08-05T14:10:18.641Z,100871.16
2022-08-05T14:12:48.855Z,100871.25
2022-08-05T14:16:07.235Z,100864.75
2022-08-05T14:18:05.641Z,100862.00
2022-08-05T14:20:32.629Z,100876.34
2022-08-05T14:23:00.085Z,100867.00
2022-08-05T14:25:30.033Z,100871.66
2022-08-05T14:27:58.423Z,100862.53
2022-08-05T14:30:27.735Z,100880.47
2022-08-05T14:33:22.825Z,100879.81
2022-08-05T14:35:52.058Z,100881.16
2022-08-05T14:41:11.114Z,100891.19
2022-08-05T14:44:02.339Z,100893.69
2022-08-05T14:46:30.597Z,100898.50
2022-08-05T14:49:06.249Z,100884.53
2022-08-05T14:51:38.174Z,100898.00
2022-08-05T14:54:28.990Z,100903.84
2022-08-05T14:56:57.483Z,100903.41
2022-08-05T14:59:24.929Z,100903.41
2022-08-05T15:01:56.335Z,100906.63
2022-08-05T15:04:24.140Z,100907.38
2022-08-05T15:06:54.683Z,100904.94
2022-08-05T15:09:51.681Z,100899.75
2022-08-05T15:12:11.789Z,100888.13
2022-08-05T15:15:10.786Z,100886.41
2022-08-05T15:17:46.470Z,100899.75
2022-08-05T15:20:24.580Z,100900.31
2022-08-05T15:22:54.930Z,100900.16
2022-08-05T15:25:51.331Z,100899.50
2022-08-05T15:28:13.395Z,100901.56
2022-08-05T15:30:46.799Z,100903.59
2022-08-05T15:34:05.979Z,100900.06
2022-08-05T15:36:16.637Z,100916.38
2022-08-05T15:41:03.808Z,100929.78
2022-08-05T15:41:58.887Z,100919.13
2022-08-05T15:44:30.323Z,100922.72
2022-08-05T15:47:01.455Z,100935.09
2022-08-05T15:49:53.528Z,100912.59
2022-08-05T15:52:51.906Z,100937.91
2022-08-05T15:55:05.990Z,100939.09
2022-08-05T15:57:35.011Z,100958.13
2022-08-05T16:00:05.255Z,100963.41
2022-08-05T16:02:32.954Z,100954.88
2022-08-05T16:05:03.723Z,100965.41
2022-08-05T16:07:33.066Z,100958.50
2022-08-05T16:10:00.210Z,100951.22
2022-08-05T16:12:27.187Z,100961.38
2022-08-05T16:14:54.445Z,100959.63
2022-08-05T16:17:22.719Z,100986.94
2022-08-05T16:20:04.584Z,100993.34
2022-08-05T16:22:34.981Z,100987.91
2022-08-05T16:25:05.272Z,100997.16
2022-08-05T16:27:47.156Z,101004.38
2022-08-05T16:30:26.385Z,100998.22
2022-08-05T16:32:55.643Z,101006.97
2022-08-05T16:35:28.657Z,101000.38
2022-08-05T16:38:16.226Z,101019.75
2022-08-05T16:40:55.720Z,101030.59
2022-08-05T16:43:33.586Z,101025.66
2022-08-05T16:46:13.057Z,101046.94
2022-08-05T16:48:50.616Z,101049.97
2022-08-05T16:51:17.711Z,101060.19
2022-08-05T16:54:05.366Z,101067.63
2022-08-05T16:56:36.276Z,101055.59
2022-08-05T16:59:08.047Z,101041.72
2022-08-05T17:01:52.800Z,101047.66
2022-08-05T17:04:26.418Z,101053.16
2022-08-05T17:07:03.257Z,101055.69
2022-08-05T17:09:49.967Z,101064.75
2022-08-05T17:12:51.782Z,101063.13
2022-08-05T17:15:19.244Z,101076.41
2022-08-05T17:17:52.664Z,101087.28
2022-08-05T17:20:22.573Z,101104.81
2022-08-05T17:22:55.607Z,101117.16
2022-08-05T17:25:34.027Z,101125.63
2022-08-05T17:28:07.754Z,101123.91
2022-08-05T17:30:42.584Z,101119.16
2022-08-05T17:33:19.996Z,101129.34
2022-08-05T17:36:08.368Z,101145.50
2022-08-05T17:38:34.322Z,101140.19
2022-08-05T17:41:01.991Z,101155.94
2022-08-05T17:43:50.342Z,101153.78
2022-08-05T17:46:16.194Z,101159.47
2022-08-05T17:48:47.769Z,101162.25
2022-08-05T17:51:21.463Z,101165.84
2022-08-05T17:53:54.461Z,101171.69
2022-08-05T17:56:22.703Z,101190.25
2022-08-05T17:58:50.090Z,101200.13
2022-08-05T18:01:19.043Z,101208.06
2022-08-05T18:03:58.865Z,101217.38
2022-08-05T18:06:31.939Z,101215.59
2022-08-05T18:08:59.733Z,101219.59
2022-08-05T18:11:33.386Z,101240.84
2022-08-05T18:14:07.578Z,101238.03
2022-08-05T18:16:51.306Z,101238.63
2022-08-05T18:19:22.755Z,101253.53
2022-08-05T18:22:09.086Z,101252.97
2022-08-05T18:24:39.668Z,101251.16
2022-08-05T18:27:12.618Z,101258.34
2022-08-05T18:29:52.001Z,101257.78
2022-08-05T18:35:13.440Z,101278.84
2022-08-05T18:37:40.670Z,101271.09
2022-08-05T18:40:34.071Z,101275.88
2022-08-05T18:43:02.752Z,101282.69
2022-08-05T18:45:41.824Z,101287.25
2022-08-05T18:48:11.425Z,101290.09
2022-08-05T18:50:57.442Z,101282.63
2022-08-05T18:53:50.023Z,101279.81
2022-08-05T18:56:17.636Z,101289.06
2022-08-05T18:58:51.030Z,101304.25
2022-08-05T19:01:33.351Z,101312.03
2022-08-05T19:04:12.250Z,101305.97
2022-08-05T19:06:44.650Z,101320.31
2022-08-05T19:09:12.681Z,101322.31
2022-08-05T19:12:00.768Z,101336.06
2022-08-05T19:14:44.871Z,101335.44
2022-08-05T19:17:14.847Z,101342.94
2022-08-05T19:19:46.945Z,101336.16
2022-08-05T19:22:17.226Z,101319.75
2022-08-05T19:24:54.309Z,101341.78
2022-08-05T19:27:30.194Z,101349.78
2022-08-05T19:29:58.359Z,101349.25
2022-08-05T19:32:26.268Z,101347.44
2022-08-05T19:34:55.873Z,101364.63
2022-08-05T19:37:35.324Z,101362.78
2022-08-05T19:40:12.585Z,101375.69
2022-08-05T19:42:42.395Z,101389.63
2022-08-05T19:45:33.145Z,101388.63
2022-08-05T19:48:05.386Z,101384.88
2022-08-05T19:50:32.925Z,101387.63
2022-08-05T19:53:09.160Z,101386.00
2022-08-05T19:56:15.271Z,101403.03
2022-08-05T19:58:29.248Z,101411.81
2022-08-05T20:00:57.849Z,101407.16
2022-08-05T20:03:26.100Z,101415.94
2022-08-05T20:05:56.629Z,101408.72
2022-08-05T20:08:24.889Z,101405.47
2022-08-05T20:10:53.053Z,101400.63
2022-08-05T20:13:29.872Z,101410.72
2022-08-05T20:15:57.583Z,101396.34
2022-08-05T20:18:33.552Z,101411.59
2022-08-05T20:21:05.309Z,101416.53
2022-08-05T20:23:39.270Z,101408.78
2022-08-05T20:26:17.261Z,101415.63
2022-08-05T20:28:48.453Z,101430.97
2022-08-05T20:31:17.651Z,101433.97
2022-08-05T20:33:49.416Z,101426.97
2022-08-05T20:36:17.981Z,101435.66
2022-08-05T20:38:54.273Z,101442.72
2022-08-05T20:41:27.018Z,101452.59
2022-08-05T20:44:19.403Z,101454.84
2022-08-05T20:47:03.146Z,101469.09
2022-08-05T20:49:38.082Z,101484.41
2022-08-05T20:52:08.796Z,101480.03
2022-08-05T20:54:59.028Z,101492.03
2022-08-05T20:57:43.530Z,101506.78
2022-08-05T21:00:40.325Z,101519.59
2022-08-05T21:03:08.149Z,101517.16
2022-08-05T21:05:53.843Z,101509.28
2022-08-05T21:08:41.919Z,101521.56
2022-08-05T21:11:12.826Z,101528.91
2022-08-05T21:13:47.882Z,101530.03
2022-08-05T21:16:29.765Z,101536.28
2022-08-05T21:19:01.576Z,101533.31
2022-08-05T21:21:43.870Z,101529.03
2022-08-05T21:24:19.319Z,101536.66
2022-08-05T21:26:53.345Z,101541.34
2022-08-05T21:29:32.015Z,101537.88
2022-08-05T21:32:01.940Z,101537.34
2022-08-05T21:34:31.641Z,101536.53
2022-08-05T21:37:00.170Z,101534.66
2022-08-05T21:39:28.088Z,101536.31
2022-08-05T21:42:01.711Z,101546.13
2022-08-05T21:44:31.042Z,101551.31
2022-08-05T21:46:59.634Z,101530.41
2022-08-05T21:49:48.279Z,101544.59
2022-08-05T21:52:21.760Z,101535.94
2022-08-05T21:54:56.945Z,101539.00
2022-08-05T21:57:32.532Z,101536.88
2022-08-05T22:00:05.823Z,101547.75
2022-08-05T22:02:42.596Z,101556.22
2022-08-05T22:05:12.014Z,101550.00
2022-08-05T22:07:59.589Z,101569.38
2022-08-05T22:10:27.646Z,101566.13
2022-08-05T22:14:05.229Z,101564.78
2022-08-05T22:16:00.814Z,101554.75
2022-08-05T22:18:34.035Z,101555.84
2022-08-05T22:21:04.250Z,101557.47
2022-08-05T22:24:09.031Z,101581.16
2022-08-05T22:26:59.912Z,101581.19
2022-08-05T22:29:30.728Z,101589.34
2022-08-05T22:32:03.156Z,101583.91
2022-08-05T22:34:32.671Z,101596.72
2022-08-05T22:37:00.583Z,101596.44
2022-08-05T22:39:33.691Z,101600.53
2022-08-05T22:42:12.287Z,101610.31
2022-08-05T22:44:42.700Z,101599.22
2022-08-05T22:47:29.725Z,101602.22
2022-08-05T22:50:19.055Z,101613.63
2022-08-05T22:52:46.574Z,101611.19
2022-08-05T22:55:19.366Z,101604.41
2022-08-05T22:57:51.498Z,101604.38
2022-08-05T23:00:21.658Z,101603.31
2022-08-05T23:02:50.716Z,101588.66
2022-08-05T23:05:19.068Z,101617.97
2022-08-05T23:07:50.648Z,101606.59
2022-08-05T23:10:20.762Z,101603.88
2022-08-05T23:12:54.479Z,101616.91
2022-08-05T23:15:29.553Z,101605.25
2022-08-05T23:18:03.258Z,101613.13
2022-08-05T23:20:32.943Z,101617.47
2022-08-05T23:23:05.764Z,101613.41
2022-08-05T23:25:53.250Z,101615.06
2022-08-05T23:28:27.614Z,101624.53
2022-08-05T23:31:16.657Z,101604.19
2022-08-05T23:34:02.986Z,101612.88
2022-08-05T23:36:39.766Z,101631.06
2022-08-05T23:39:17.244Z,101639.19
2022-08-05T23:41:51.866Z,101641.91
2022-08-05T23:44:19.820Z,101637.56
2022-08-05T23:46:52.357Z,101640.81
2022-08-05T23:49:23.877Z,101657.06
2022-08-05T23:52:19.646Z,101640.78
2022-08-05T23:54:49.439Z,101652.16
2022-08-05T23:57:16.673Z,101650.00
